createdAt,value
2023-05-10T00:02:11.369Z,18.76
2023-05-10T00:04:44.854Z,18.68
2023-05-10T00:07:21.380Z,18.65
2023-05-10T00:09:53.240Z,18.54
2023-05-10T00:12:37.644Z,18.58
2023-05-10T00:15:21.144Z,18.48
2023-05-10T00:18:06.476Z,18.45
2023-05-10T00:56:43.174Z,18.01
2023-05-10T00:59:14.078Z,17.91
2023-05-10T01:01:44.282Z,17.86
2023-05-10T01:04:15.624Z,17.79
2023-05-10T01:06:46.261Z,17.82
2023-05-10T01:09:16.492Z,17.82
2023-05-10T01:11:48.759Z,17.82
2023-05-10T01:14:22.277Z,17.80
2023-05-10T01:16:53.850Z,17.80
2023-05-10T01:19:29.907Z,17.80
2023-05-10T01:22:17.876Z,17.79
2023-05-10T01:25:19.016Z,17.73
2023-05-10T01:28:12.660Z,17.70
2023-05-10T01:31:10.361Z,17.65
2023-05-10T01:34:02.490Z,17.62
2023-05-10T01:36:37.917Z,17.52
2023-05-10T01:39:29.268Z,17.52
2023-05-10T01:42:29.384Z,17.46
2023-05-10T01:45:18.486Z,17.50
2023-05-10T01:48:05.838Z,17.55
2023-05-10T01:50:40.123Z,17.49
2023-05-10T01:53:14.237Z,17.52
2023-05-10T01:55:56.533Z,17.52
2023-05-10T01:58:33.596Z,17.49
2023-05-10T02:01:07.268Z,17.42
2023-05-10T02:03:40.599Z,17.39
2023-05-10T02:06:13.618Z,17.38
2023-05-10T02:08:45.297Z,17.42
2023-05-10T02:11:17.963Z,17.33
2023-05-10T02:13:50.956Z,17.38
2023-05-10T02:16:25.489Z,17.38
2023-05-10T02:18:57.453Z,17.32
2023-05-10T02:21:31.518Z,17.29
2023-05-10T02:24:04.405Z,17.22
2023-05-10T02:26:38.069Z,17.16
2023-05-10T02:29:09.955Z,17.11
2023-05-10T02:31:41.911Z,17.08
2023-05-10T02:34:14.021Z,17.08
2023-05-10T02:36:45.654Z,16.98
2023-05-10T02:39:17.150Z,17.00
2023-05-10T02:41:50.245Z,16.98
2023-05-10T02:44:22.496Z,16.95
2023-05-10T02:46:52.922Z,16.98
2023-05-10T02:49:24.597Z,16.94
2023-05-10T02:52:03.637Z,16.92
2023-05-10T02:54:38.556Z,16.92
2023-05-10T02:57:10.803Z,16.94
2023-05-10T02:59:41.913Z,16.89
2023-05-10T03:02:13.584Z,16.88
2023-05-10T03:04:44.731Z,16.81
2023-05-10T03:07:15.088Z,16.84
2023-05-10T03:09:45.591Z,16.85
2023-05-10T03:12:31.408Z,16.88
2023-05-10T03:15:45.110Z,16.92
2023-05-10T03:18:54.347Z,16.91
2023-05-10T03:21:30.131Z,16.87
2023-05-10T03:24:09.430Z,16.77
2023-05-10T03:26:42.869Z,16.74
2023-05-10T03:29:20.058Z,16.71
2023-05-10T03:31:50.564Z,16.68
2023-05-10T03:34:27.490Z,16.71
2023-05-10T03:36:58.077Z,16.71
2023-05-10T03:39:30.258Z,16.70
2023-05-10T03:42:02.908Z,16.68
2023-05-10T03:44:35.646Z,16.68
2023-05-10T03:47:06.079Z,16.67
2023-05-10T03:49:36.568Z,16.63
2023-05-10T03:52:07.782Z,16.65
2023-05-10T03:54:39.121Z,16.60
2023-05-10T03:57:09.433Z,16.61
2023-05-10T03:59:39.520Z,16.61
2023-05-10T04:02:10.227Z,16.59
2023-05-10T04:04:41.602Z,16.57
2023-05-10T04:07:12.777Z,16.50
2023-05-10T04:09:44.273Z,16.47
2023-05-10T04:12:14.644Z,16.40
2023-05-10T04:14:44.657Z,16.39
2023-05-10T04:17:15.989Z,16.36
2023-05-10T04:19:47.385Z,16.33
2023-05-10T04:22:19.145Z,16.30
2023-05-10T04:24:49.456Z,16.24
2023-05-10T04:27:19.467Z,16.24
2023-05-10T04:29:51.088Z,16.21
2023-05-10T04:32:22.889Z,16.21
2023-05-10T04:34:56.377Z,16.20
2023-05-10T04:37:26.641Z,16.14
2023-05-10T04:39:57.844Z,16.09
2023-05-10T04:42:29.305Z,16.03
2023-05-10T04:45:02.201Z,16.05
2023-05-10T04:47:34.076Z,16.03
2023-05-10T04:50:04.524Z,16.03
2023-05-10T04:52:34.594Z,16.00
2023-05-10T04:55:06.203Z,16.03
2023-05-10T04:57:37.594Z,16.05
2023-05-10T05:00:09.468Z,16.06
2023-05-10T05:02:40.694Z,16.02
2023-05-10T05:05:11.937Z,15.99
2023-05-10T05:07:42.878Z,15.92
2023-05-10T05:10:14.090Z,15.88
2023-05-10T05:12:44.348Z,15.86
2023-05-10T05:15:14.428Z,15.83
2023-05-10T05:17:45.705Z,15.83
2023-05-10T05:20:17.265Z,15.83
2023-05-10T05:22:48.889Z,15.86
2023-05-10T05:25:19.603Z,15.86
2023-05-10T05:27:49.834Z,15.88
2023-05-10T05:30:21.752Z,15.83
2023-05-10T05:32:52.010Z,15.81
2023-05-10T05:35:22.183Z,15.76
2023-05-10T05:37:52.523Z,15.72
2023-05-10T05:40:23.856Z,15.72
2023-05-10T05:42:54.901Z,15.66
2023-05-10T05:45:26.328Z,15.65
2023-05-10T05:47:56.769Z,15.63
2023-05-10T05:50:27.561Z,15.65
2023-05-10T05:52:57.743Z,15.66
2023-05-10T05:55:28.472Z,15.66
2023-05-10T05:58:01.278Z,15.68
2023-05-10T06:00:32.227Z,15.65
2023-05-10T06:03:03.062Z,15.68
2023-05-10T06:05:33.973Z,15.65
2023-05-10T06:08:04.290Z,15.66
2023-05-10T06:10:35.527Z,15.61
2023-05-10T06:13:06.555Z,15.61
2023-05-10T06:15:37.110Z,15.63
2023-05-10T06:18:08.312Z,15.61
2023-05-10T06:20:39.187Z,15.61
2023-05-10T06:23:10.860Z,15.62
2023-05-10T06:25:41.652Z,15.63
2023-05-10T06:28:12.693Z,15.68
2023-05-10T06:30:44.062Z,15.68
2023-05-10T06:33:15.506Z,15.61
2023-05-10T06:35:45.804Z,15.61
2023-05-10T06:38:16.571Z,15.61
2023-05-10T06:40:47.358Z,15.56
2023-05-10T06:43:18.882Z,15.56
2023-05-10T06:45:50.396Z,15.54
2023-05-10T06:48:20.886Z,15.54
2023-05-10T06:50:51.448Z,15.52
2023-05-10T06:53:21.513Z,15.55
2023-05-10T06:55:52.685Z,15.55
2023-05-10T06:58:23.636Z,15.52
2023-05-10T07:00:53.834Z,15.51
2023-05-10T07:03:24.297Z,15.47
2023-05-10T07:05:54.357Z,15.52
2023-05-10T07:08:24.772Z,15.51
2023-05-10T07:10:55.544Z,15.47
2023-05-10T07:13:25.835Z,15.41
2023-05-10T07:15:55.907Z,15.39
2023-05-10T07:18:27.541Z,15.41
2023-05-10T07:20:58.966Z,15.38
2023-05-10T07:23:29.973Z,15.38
2023-05-10T07:26:00.471Z,15.39
2023-05-10T07:28:30.682Z,15.38
2023-05-10T07:31:01.414Z,15.32
2023-05-10T07:33:32.599Z,15.32
2023-05-10T07:36:03.568Z,15.30
2023-05-10T07:38:33.748Z,15.31
2023-05-10T07:41:04.063Z,15.30
2023-05-10T07:43:34.361Z,15.30
2023-05-10T07:46:04.410Z,15.27
2023-05-10T07:48:35.360Z,15.18
2023-05-10T07:51:06.586Z,15.15
2023-05-10T07:53:38.110Z,15.15
2023-05-10T07:56:26.134Z,15.14
2023-05-10T07:58:58.902Z,15.14
2023-05-10T08:01:30.003Z,15.14
2023-05-10T08:04:00.071Z,15.10
2023-05-10T08:06:33.492Z,15.14
2023-05-10T08:09:04.573Z,15.15
2023-05-10T08:11:38.424Z,15.12
2023-05-10T08:14:09.464Z,15.12
2023-05-10T08:16:40.584Z,15.10
2023-05-10T08:19:11.512Z,15.04
2023-05-10T08:21:43.091Z,15.10
2023-05-10T08:24:13.313Z,15.08
2023-05-10T08:26:43.587Z,15.10
2023-05-10T08:29:15.041Z,15.10
2023-05-10T08:31:45.395Z,15.04
2023-05-10T08:34:16.284Z,15.04
2023-05-10T08:36:46.999Z,15.05
2023-05-10T08:39:29.347Z,15.10
2023-05-10T08:42:05.003Z,15.11
2023-05-10T08:44:39.622Z,15.05
2023-05-10T08:47:11.996Z,15.04
2023-05-10T08:49:42.964Z,15.10
2023-05-10T08:52:16.354Z,15.08
2023-05-10T08:54:46.973Z,14.97
2023-05-10T08:57:17.716Z,14.95
2023-05-10T08:59:48.956Z,14.93
2023-05-10T09:02:21.749Z,14.97
2023-05-10T09:04:52.798Z,14.97
2023-05-10T09:07:24.010Z,14.95
2023-05-10T09:09:58.000Z,14.91
2023-05-10T09:12:29.168Z,14.93
2023-05-10T09:15:03.316Z,14.93
2023-05-10T09:17:33.797Z,14.91
2023-05-10T09:20:07.901Z,14.91
2023-05-10T09:22:39.799Z,14.94
2023-05-10T09:25:15.977Z,14.95
2023-05-10T09:27:52.593Z,14.91
2023-05-10T09:30:32.516Z,14.94
2023-05-10T09:33:03.652Z,14.93
2023-05-10T09:35:36.534Z,14.95
2023-05-10T09:38:07.984Z,14.95
2023-05-10T09:40:39.490Z,14.97
2023-05-10T09:43:11.094Z,15.00
2023-05-10T09:45:44.604Z,14.98
2023-05-10T09:48:19.604Z,15.00
2023-05-10T09:51:00.087Z,15.00
2023-05-10T09:53:31.224Z,14.98
2023-05-10T09:56:02.123Z,14.91
2023-05-10T09:58:33.222Z,14.91
2023-05-10T10:01:04.466Z,14.94
2023-05-10T10:03:35.937Z,14.93
2023-05-10T10:06:15.975Z,14.91
2023-05-10T10:08:56.243Z,14.98
2023-05-10T10:11:27.203Z,15.01
2023-05-10T10:13:58.709Z,15.01
2023-05-10T10:16:32.886Z,15.08
2023-05-10T10:19:04.058Z,15.08
2023-05-10T10:21:36.694Z,15.17
2023-05-10T10:24:08.197Z,15.25
2023-05-10T10:26:47.902Z,15.58
2023-05-10T10:29:34.801Z,15.68
2023-05-10T10:32:28.365Z,19.87
2023-05-10T10:34:59.842Z,20.69
2023-05-10T10:37:48.429Z,19.34
2023-05-10T10:40:34.820Z,21.84
2023-05-10T10:43:28.830Z,20.42
2023-05-10T10:46:21.860Z,19.59
2023-05-10T10:49:11.223Z,22.04
2023-05-10T10:51:42.238Z,24.66
2023-05-10T10:54:14.911Z,25.78
2023-05-10T10:56:48.610Z,25.81
2023-05-10T10:59:30.540Z,26.90
2023-05-10T11:02:02.715Z,26.76
2023-05-10T11:04:49.774Z,24.06
2023-05-10T11:07:22.081Z,22.83
2023-05-10T11:09:53.401Z,21.91
2023-05-10T11:12:24.408Z,23.90
2023-05-10T11:14:55.798Z,23.75
2023-05-10T11:17:28.880Z,23.04
2023-05-10T11:20:17.760Z,21.98
2023-05-10T11:22:57.207Z,21.09
2023-05-10T11:25:31.480Z,20.51
2023-05-10T11:28:08.411Z,20.34
2023-05-10T11:30:40.777Z,20.14
2023-05-10T11:33:12.824Z,20.65
2023-05-10T11:35:44.689Z,20.93
2023-05-10T11:38:17.411Z,21.10
2023-05-10T11:40:47.828Z,21.03
2023-05-10T11:43:18.611Z,21.47
2023-05-10T11:45:49.044Z,21.71
2023-05-10T11:48:24.661Z,21.97
2023-05-10T11:50:58.681Z,22.28
2023-05-10T11:53:37.013Z,22.69
2023-05-10T11:56:11.832Z,22.63
2023-05-10T11:58:43.526Z,22.31
2023-05-10T12:01:15.406Z,22.18
2023-05-10T12:03:45.800Z,21.98
2023-05-10T12:06:16.490Z,22.00
2023-05-10T12:08:54.892Z,21.95
2023-05-10T12:11:29.241Z,21.73
2023-05-10T12:13:59.553Z,21.57
2023-05-10T12:16:32.161Z,21.48
2023-05-10T12:19:03.615Z,21.53
2023-05-10T12:21:35.060Z,21.73
2023-05-10T12:24:08.006Z,21.88
2023-05-10T12:26:38.977Z,22.38
2023-05-10T12:29:22.162Z,23.10
2023-05-10T12:31:59.980Z,22.76
2023-05-10T12:34:34.437Z,22.46
2023-05-10T12:37:06.841Z,22.42
2023-05-10T12:39:48.483Z,22.39
2023-05-10T12:42:19.699Z,22.42
2023-05-10T12:44:50.695Z,22.93
2023-05-10T12:47:21.561Z,23.21
2023-05-10T12:49:52.873Z,23.21
2023-05-10T12:52:24.417Z,23.35
2023-05-10T12:54:56.805Z,23.23
2023-05-10T12:57:28.175Z,22.87
2023-05-10T12:59:58.538Z,22.39
2023-05-10T13:02:29.836Z,22.89
2023-05-10T13:05:00.561Z,22.69
2023-05-10T13:07:32.088Z,22.53
2023-05-10T13:10:02.498Z,22.26
2023-05-10T13:12:33.805Z,22.25
2023-05-10T13:15:05.420Z,21.97
2023-05-10T13:17:35.674Z,22.59
2023-05-10T13:20:05.874Z,23.30
2023-05-10T13:22:40.500Z,23.31
2023-05-10T13:25:11.472Z,23.72
2023-05-10T13:27:43.742Z,23.69
2023-05-10T13:30:14.634Z,23.92
2023-05-10T13:32:44.824Z,23.72
2023-05-10T13:35:15.297Z,24.53
2023-05-10T13:37:46.295Z,23.78
2023-05-10T13:40:18.977Z,23.59
2023-05-10T13:42:49.502Z,23.89
2023-05-10T13:45:20.378Z,24.05
2023-05-10T13:47:51.062Z,23.89
2023-05-10T13:50:22.268Z,23.75
2023-05-10T13:52:53.253Z,23.51
2023-05-10T13:55:24.163Z,23.13
2023-05-10T13:57:55.962Z,23.00
2023-05-10T14:00:29.316Z,23.13
2023-05-10T14:03:02.377Z,22.86
2023-05-10T14:05:32.903Z,22.86
2023-05-10T14:08:04.674Z,23.10
2023-05-10T14:10:34.851Z,23.13
2023-05-10T14:13:06.431Z,22.93
2023-05-10T14:15:36.808Z,22.77
2023-05-10T14:18:06.909Z,22.77
2023-05-10T14:20:38.640Z,22.86
2023-05-10T14:23:11.198Z,22.79
2023-05-10T14:25:45.004Z,22.67
2023-05-10T14:28:15.379Z,22.39
2023-05-10T14:30:45.543Z,22.21
2023-05-10T14:33:16.695Z,22.25
2023-05-10T14:35:49.835Z,22.22
2023-05-10T14:38:20.807Z,22.32
2023-05-10T14:40:50.844Z,22.43
2023-05-10T14:43:21.027Z,22.41
2023-05-10T14:45:51.099Z,22.38
2023-05-10T14:48:21.458Z,22.35
2023-05-10T14:50:52.967Z,22.31
2023-05-10T14:53:23.285Z,22.39
2023-05-10T14:55:54.137Z,22.42
2023-05-10T14:58:25.076Z,22.36
2023-05-10T15:00:58.214Z,22.19
2023-05-10T15:03:29.270Z,22.15
2023-05-10T15:06:00.652Z,22.06
2023-05-10T15:08:37.832Z,21.85
2023-05-10T15:11:21.429Z,21.77
2023-05-10T15:13:56.910Z,21.87
2023-05-10T15:16:35.822Z,21.80
2023-05-10T15:19:09.903Z,21.92
2023-05-10T15:21:47.964Z,22.06
2023-05-10T15:24:38.663Z,22.13
2023-05-10T15:27:12.667Z,22.16
2023-05-10T15:29:42.974Z,22.19
2023-05-10T15:32:13.574Z,22.32
2023-05-10T15:34:59.590Z,22.52
2023-05-10T15:37:40.392Z,22.74
2023-05-10T15:40:26.219Z,22.89
2023-05-10T15:42:58.934Z,23.13
2023-05-10T15:45:32.892Z,22.66
2023-05-10T15:48:14.359Z,22.99
2023-05-10T15:50:51.270Z,23.30
2023-05-10T15:53:28.146Z,23.98
2023-05-10T15:55:58.589Z,24.46
2023-05-10T15:58:29.369Z,24.61
2023-05-10T16:01:18.492Z,24.83
2023-05-10T16:03:52.882Z,24.74
2023-05-10T16:06:28.435Z,24.49
2023-05-10T16:11:46.043Z,24.23
2023-05-10T16:14:20.419Z,23.78
2023-05-10T16:16:59.475Z,23.64
2023-05-10T16:19:45.666Z,23.45
2023-05-10T16:22:43.244Z,24.12
2023-05-10T16:25:15.847Z,24.15
2023-05-10T16:27:49.328Z,24.05
2023-05-10T16:30:30.231Z,23.84
2023-05-10T16:33:06.005Z,23.64
2023-05-10T16:35:37.496Z,23.84
2023-05-10T16:38:08.739Z,24.13
2023-05-10T16:40:38.902Z,24.20
2023-05-10T16:43:09.167Z,24.06
2023-05-10T16:45:39.582Z,23.74
2023-05-10T16:48:09.683Z,23.62
2023-05-10T16:50:41.097Z,23.61
2023-05-10T16:53:13.059Z,23.90
2023-05-10T16:55:43.491Z,23.69
2023-05-10T16:58:13.519Z,23.59
2023-05-10T17:00:44.267Z,23.58
2023-05-10T17:03:14.458Z,23.67
2023-05-10T17:05:45.523Z,24.12
2023-05-10T17:08:17.334Z,24.44
2023-05-10T17:10:48.162Z,24.55
2023-05-10T17:13:19.356Z,24.69
2023-05-10T17:15:50.271Z,24.80
2023-05-10T17:18:21.840Z,24.74
2023-05-10T17:20:52.998Z,24.79
2023-05-10T17:23:23.162Z,24.73
2023-05-10T17:25:53.190Z,24.80
2023-05-10T17:28:23.590Z,24.67
2023-05-10T17:31:01.635Z,24.64
2023-05-10T17:33:32.763Z,24.70
2023-05-10T17:36:04.024Z,24.39
2023-05-10T17:38:34.274Z,24.40
2023-05-10T17:41:05.056Z,24.43
2023-05-10T17:43:35.429Z,24.71
2023-05-10T17:46:05.472Z,24.61
2023-05-10T17:48:38.326Z,24.52
2023-05-10T17:51:09.742Z,24.55
2023-05-10T17:53:42.596Z,24.63
2023-05-10T17:56:14.209Z,24.53
2023-05-10T17:58:45.449Z,24.53
2023-05-10T18:01:16.133Z,24.44
2023-05-10T18:03:47.389Z,24.26
2023-05-10T18:06:17.582Z,24.37
2023-05-10T18:08:47.784Z,24.35
2023-05-10T18:11:21.091Z,24.39
2023-05-10T18:13:52.817Z,24.40
2023-05-10T18:16:23.831Z,24.37
2023-05-10T18:18:54.990Z,24.39
2023-05-10T18:21:26.752Z,24.15
2023-05-10T18:23:58.281Z,24.13
2023-05-10T18:26:29.172Z,24.12
2023-05-10T18:29:01.657Z,24.20
2023-05-10T18:31:35.394Z,23.98
2023-05-10T18:34:07.205Z,23.89
2023-05-10T18:36:38.462Z,23.99
2023-05-10T18:39:13.124Z,23.89
2023-05-10T18:41:45.756Z,23.90
2023-05-10T18:44:17.474Z,23.86
2023-05-10T18:46:50.985Z,23.71
2023-05-10T18:49:24.414Z,23.76
2023-05-10T18:51:55.738Z,23.85
2023-05-10T18:54:26.531Z,23.94
2023-05-10T18:57:01.280Z,23.90
2023-05-10T18:59:33.859Z,23.92
2023-05-10T19:02:05.058Z,23.88
2023-05-10T19:04:36.331Z,23.81
2023-05-10T19:07:06.997Z,23.72
2023-05-10T19:09:37.582Z,23.55
2023-05-10T19:12:08.632Z,23.23
2023-05-10T19:14:39.111Z,23.18
2023-05-10T19:17:09.502Z,23.21
2023-05-10T19:19:39.863Z,23.17
2023-05-10T19:22:11.221Z,22.96
2023-05-10T19:24:43.993Z,23.27
2023-05-10T19:27:15.820Z,23.20
2023-05-10T19:29:46.094Z,23.02
2023-05-10T19:32:16.098Z,22.93
2023-05-10T19:34:46.273Z,22.93
2023-05-10T19:37:17.013Z,22.82
2023-05-10T19:39:48.276Z,22.66
2023-05-10T19:42:21.452Z,22.56
2023-05-10T19:44:53.449Z,22.45
2023-05-10T19:47:24.887Z,22.43
2023-05-10T19:49:55.984Z,22.41
2023-05-10T19:52:26.579Z,22.32
2023-05-10T19:54:56.552Z,22.18
2023-05-10T19:57:26.935Z,22.05
2023-05-10T19:59:56.933Z,21.94
2023-05-10T20:02:27.958Z,21.78
2023-05-10T20:04:58.923Z,21.82
2023-05-10T20:07:29.080Z,21.73
2023-05-10T20:09:59.149Z,21.61
2023-05-10T20:12:30.791Z,21.47
2023-05-10T20:15:01.768Z,21.37
2023-05-10T20:17:33.439Z,21.22
2023-05-10T20:20:05.104Z,21.09
2023-05-10T20:22:36.054Z,20.96
2023-05-10T20:25:06.782Z,20.85
2023-05-10T20:27:36.858Z,20.72
2023-05-10T20:30:08.489Z,20.62
2023-05-10T20:32:41.777Z,20.52
2023-05-10T20:35:12.748Z,20.44
2023-05-10T20:37:42.842Z,20.31
2023-05-10T20:40:13.576Z,20.22
2023-05-10T20:42:43.293Z,20.13
2023-05-10T20:45:18.173Z,20.04
2023-05-10T20:47:49.349Z,19.95
2023-05-10T20:50:19.838Z,19.93
2023-05-10T20:52:53.210Z,19.81
2023-05-10T20:55:23.473Z,19.74
2023-05-10T20:57:55.484Z,19.73
2023-05-10T21:00:25.959Z,19.64
2023-05-10T21:02:56.550Z,19.59
2023-05-10T21:05:27.208Z,19.54
2023-05-10T21:07:57.658Z,19.54
2023-05-10T21:10:29.748Z,19.47
2023-05-10T21:13:00.888Z,19.49
2023-05-10T21:15:31.165Z,19.42
2023-05-10T21:18:01.437Z,19.40
2023-05-10T21:20:32.439Z,19.32
2023-05-10T21:23:02.539Z,19.24
2023-05-10T21:25:33.976Z,19.16
2023-05-10T21:28:05.717Z,19.13
2023-05-10T21:30:37.017Z,19.10
2023-05-10T21:33:07.523Z,19.08
2023-05-10T21:35:40.724Z,19.00
2023-05-10T21:38:11.498Z,18.95
2023-05-10T21:40:42.056Z,18.94
2023-05-10T21:43:12.715Z,18.91
2023-05-10T21:45:42.854Z,18.87
2023-05-10T21:48:14.512Z,18.87
2023-05-10T21:50:46.110Z,18.81
2023-05-10T21:53:16.790Z,18.79
2023-05-10T21:55:47.539Z,18.76
2023-05-10T21:58:17.886Z,18.75
2023-05-10T22:00:48.099Z,18.73
2023-05-10T22:03:20.177Z,18.73
2023-05-10T22:05:51.387Z,18.69
2023-05-10T22:08:23.097Z,18.65
2023-05-10T22:10:55.168Z,18.65
2023-05-10T22:13:25.456Z,18.59
2023-05-10T22:15:55.511Z,18.57
2023-05-10T22:18:25.942Z,18.58
2023-05-10T22:20:55.982Z,18.51
2023-05-10T22:23:27.108Z,18.45
2023-05-10T22:26:02.738Z,18.47
2023-05-10T22:28:33.959Z,18.43
2023-05-10T22:31:05.543Z,18.51
2023-05-10T22:33:36.510Z,18.51
2023-05-10T22:36:08.284Z,18.49
2023-05-10T22:38:39.750Z,18.54
2023-05-10T22:41:09.877Z,18.49
2023-05-10T22:43:39.929Z,18.49
2023-05-10T22:46:10.237Z,18.48
2023-05-10T22:48:41.015Z,18.44
2023-05-10T22:51:12.988Z,18.40
2023-05-10T22:53:43.421Z,18.37
2023-05-10T22:56:14.159Z,18.34
2023-05-10T22:58:44.751Z,18.33
2023-05-10T23:01:15.804Z,18.24
2023-05-10T23:03:45.871Z,18.18
2023-05-10T23:06:17.006Z,18.18
2023-05-10T23:08:47.197Z,18.20
2023-05-10T23:11:17.455Z,18.23
2023-05-10T23:13:48.997Z,18.20
2023-05-10T23:16:20.665Z,18.14
2023-05-10T23:18:51.678Z,18.10
2023-05-10T23:21:21.796Z,18.04
2023-05-10T23:23:52.079Z,17.98
2023-05-10T23:26:23.158Z,17.91
2023-05-10T23:28:53.302Z,17.89
2023-05-10T23:31:24.089Z,17.96
2023-05-10T23:33:54.710Z,17.86
2023-05-10T23:36:25.594Z,17.87
2023-05-10T23:38:56.732Z,17.94
2023-05-10T23:41:27.821Z,17.96
2023-05-10T23:43:58.775Z,17.94
2023-05-10T23:46:28.836Z,17.94
2023-05-10T23:48:59.150Z,17.87
2023-05-10T23:51:30.861Z,17.83
2023-05-10T23:54:02.428Z,17.89
2023-05-10T23:56:32.723Z,17.86
2023-05-10T23:59:02.760Z,17.89
